sensor_id;sensor_type;location;lat;lon;timestamp;P1;durP1;ratioP1;P2;durP2;ratioP2
34924;SDS011;21130;51.728;8.748;2023-01-01T00:00:11;8.65;;;4.07;;
34924;SDS011;21130;51.728;8.748;2023-01-01T00:02:38;7.75;;;4.00;;
34924;SDS011;21130;51.728;8.748;2023-01-01T00:05:05;10.20;;;3.90;;
34924;SDS011;21130;51.728;8.748;2023-01-01T00:07:33;11.07;;;4.93;;
34924;SDS011;21130;51.728;8.748;2023-01-01T00:10:00;8.48;;;3.33;;
34924;SDS011;21130;51.728;8.748;2023-01-01T00:12:44;9.38;;;3.30;;
34924;SDS011;21130;51.728;8.748;2023-01-01T00:15:11;5.78;;;2.88;;
34924;SDS011;21130;51.728;8.748;2023-01-01T00:17:37;7.30;;;2.78;;
34924;SDS011;21130;51.728;8.748;2023-01-01T00:20:04;8.00;;;2.88;;
34924;SDS011;21130;51.728;8.748;2023-01-01T00:22:31;7.40;;;3.10;;
34924;SDS011;21130;51.728;8.748;2023-01-01T00:24:59;10.48;;;3.45;;
34924;SDS011;21130;51.728;8.748;2023-01-01T00:27:26;11.40;;;3.90;;
34924;SDS011;21130;51.728;8.748;2023-01-01T00:29:52;9.23;;;3.00;;
34924;SDS011;21130;51.728;8.748;2023-01-01T00:32:18;8.55;;;2.95;;
34924;SDS011;21130;51.728;8.748;2023-01-01T00:34:45;8.32;;;2.85;;
34924;SDS011;21130;51.728;8.748;2023-01-01T00:37:11;8.52;;;2.97;;
34924;SDS011;21130;51.728;8.748;2023-01-01T00:39:40;7.18;;;2.90;;
34924;SDS011;21130;51.728;8.748;2023-01-01T00:42:06;6.93;;;2.70;;
34924;SDS011;21130;51.728;8.748;2023-01-01T00:44:33;4.70;;;2.50;;
34924;SDS011;21130;51.728;8.748;2023-01-01T00:47:00;7.90;;;2.90;;
34924;SDS011;21130;51.728;8.748;2023-01-01T00:49:26;8.35;;;2.88;;
34924;SDS011;21130;51.728;8.748;2023-01-01T00:51:53;10.43;;;3.03;;
34924;SDS011;21130;51.728;8.748;2023-01-01T00:54:19;10.30;;;2.80;;
34924;SDS011;21130;51.728;8.748;2023-01-01T00:56:47;5.18;;;2.97;;
34924;SDS011;21130;51.728;8.748;2023-01-01T00:59:14;10.00;;;3.47;;
34924;SDS011;21130;51.728;8.748;2023-01-01T01:01:40;5.75;;;2.95;;
34924;SDS011;21130;51.728;8.748;2023-01-01T01:04:09;6.85;;;2.92;;
34924;SDS011;21130;51.728;8.748;2023-01-01T01:06:35;8.98;;;2.95;;
34924;SDS011;21130;51.728;8.748;2023-01-01T01:09:02;6.32;;;3.28;;
34924;SDS011;21130;51.728;8.748;2023-01-01T01:11:31;7.50;;;3.00;;
34924;SDS011;21130;51.728;8.748;2023-01-01T01:13:58;9.18;;;3.70;;
34924;SDS011;21130;51.728;8.748;2023-01-01T01:16:27;8.10;;;2.97;;
34924;SDS011;21130;51.728;8.748;2023-01-01T01:18:56;8.00;;;3.08;;
34924;SDS011;21130;51.728;8.748;2023-01-01T01:21:25;11.15;;;3.38;;
34924;SDS011;21130;51.728;8.748;2023-01-01T01:23:53;9.73;;;3.70;;
34924;SDS011;21130;51.728;8.748;2023-01-01T01:26:20;9.25;;;3.30;;
34924;SDS011;21130;51.728;8.748;2023-01-01T01:28:48;8.73;;;3.55;;
34924;SDS011;21130;51.728;8.748;2023-01-01T01:31:16;10.25;;;3.40;;
34924;SDS011;21130;51.728;8.748;2023-01-01T01:33:43;7.22;;;3.13;;
34924;SDS011;21130;51.728;8.748;2023-01-01T01:36:10;8.60;;;3.55;;
34924;SDS011;21130;51.728;8.748;2023-01-01T01:38:38;10.77;;;3.30;;
34924;SDS011;21130;51.728;8.748;2023-01-01T01:41:05;10.30;;;3.50;;
34924;SDS011;21130;51.728;8.748;2023-01-01T01:43:50;4.97;;;3.25;;
34924;SDS011;21130;51.728;8.748;2023-01-01T01:46:22;9.20;;;3.42;;
34924;SDS011;21130;51.728;8.748;2023-01-01T01:48:54;9.43;;;3.70;;
34924;SDS011;21130;51.728;8.748;2023-01-01T01:51:23;9.95;;;3.33;;
34924;SDS011;21130;51.728;8.748;2023-01-01T01:53:56;8.18;;;3.30;;
34924;SDS011;21130;51.728;8.748;2023-01-01T01:56:27;7.93;;;3.45;;
34924;SDS011;21130;51.728;8.748;2023-01-01T01:59:03;8.27;;;2.70;;
34924;SDS011;21130;51.728;8.748;2023-01-01T02:01:31;11.00;;;3.28;;
34924;SDS011;21130;51.728;8.748;2023-01-01T02:03:58;7.50;;;3.15;;
34924;SDS011;21130;51.728;8.748;2023-01-01T02:06:27;7.03;;;3.50;;
34924;SDS011;21130;51.728;8.748;2023-01-01T02:08:55;10.35;;;3.30;;
34924;SDS011;21130;51.728;8.748;2023-01-01T02:11:24;7.85;;;3.22;;
34924;SDS011;21130;51.728;8.748;2023-01-01T02:13:50;10.18;;;3.28;;
34924;SDS011;21130;51.728;8.748;2023-01-01T02:16:20;8.45;;;3.10;;
34924;SDS011;21130;51.728;8.748;2023-01-01T02:18:55;7.53;;;2.83;;
34924;SDS011;21130;51.728;8.748;2023-01-01T02:21:26;8.05;;;3.50;;
34924;SDS011;21130;51.728;8.748;2023-01-01T02:24:00;9.40;;;3.13;;
34924;SDS011;21130;51.728;8.748;2023-01-01T02:26:57;7.22;;;3.45;;
34924;SDS011;21130;51.728;8.748;2023-01-01T02:29:33;6.22;;;2.92;;
34924;SDS011;21130;51.728;8.748;2023-01-01T02:32:06;5.05;;;2.70;;
34924;SDS011;21130;51.728;8.748;2023-01-01T02:34:35;5.57;;;3.13;;
34924;SDS011;21130;51.728;8.748;2023-01-01T02:37:06;5.50;;;2.95;;
34924;SDS011;21130;51.728;8.748;2023-01-01T02:39:36;4.15;;;2.78;;
34924;SDS011;21130;51.728;8.748;2023-01-01T02:42:07;5.93;;;2.22;;
34924;SDS011;21130;51.728;8.748;2023-01-01T02:44:35;5.70;;;2.45;;
34924;SDS011;21130;51.728;8.748;2023-01-01T02:47:07;5.97;;;2.42;;
34924;SDS011;21130;51.728;8.748;2023-01-01T02:49:36;6.63;;;2.90;;
34924;SDS011;21130;51.728;8.748;2023-01-01T02:52:06;6.07;;;2.55;;
34924;SDS011;21130;51.728;8.748;2023-01-01T02:54:39;5.15;;;2.20;;
34924;SDS011;21130;51.728;8.748;2023-01-01T02:57:13;4.20;;;2.20;;
34924;SDS011;21130;51.728;8.748;2023-01-01T02:59:55;4.95;;;2.53;;
34924;SDS011;21130;51.728;8.748;2023-01-01T03:02:53;4.32;;;2.00;;
34924;SDS011;21130;51.728;8.748;2023-01-01T03:05:42;8.27;;;2.60;;
34924;SDS011;21130;51.728;8.748;2023-01-01T03:08:33;7.05;;;2.40;;
34924;SDS011;21130;51.728;8.748;2023-01-01T03:11:11;4.45;;;2.60;;
34924;SDS011;21130;51.728;8.748;2023-01-01T03:13:41;7.10;;;2.38;;
34924;SDS011;21130;51.728;8.748;2023-01-01T03:16:15;8.23;;;2.40;;
34924;SDS011;21130;51.728;8.748;2023-01-01T03:18:50;4.22;;;2.25;;
34924;SDS011;21130;51.728;8.748;2023-01-01T03:21:36;7.47;;;2.35;;
34924;SDS011;21130;51.728;8.748;2023-01-01T03:24:06;3.40;;;2.00;;
34924;SDS011;21130;51.728;8.748;2023-01-01T03:26:36;4.25;;;2.25;;
34924;SDS011;21130;51.728;8.748;2023-01-01T03:29:04;5.65;;;2.53;;
34924;SDS011;21130;51.728;8.748;2023-01-01T03:31:35;6.07;;;2.55;;
34924;SDS011;21130;51.728;8.748;2023-01-01T03:34:06;6.22;;;2.28;;
34924;SDS011;21130;51.728;8.748;2023-01-01T03:36:38;7.72;;;2.58;;
34924;SDS011;21130;51.728;8.748;2023-01-01T03:39:09;7.90;;;2.50;;
34924;SDS011;21130;51.728;8.748;2023-01-01T03:41:41;7.95;;;2.00;;
34924;SDS011;21130;51.728;8.748;2023-01-01T03:44:13;3.92;;;1.85;;
34924;SDS011;21130;51.728;8.748;2023-01-01T03:46:47;5.38;;;2.10;;
34924;SDS011;21130;51.728;8.748;2023-01-01T03:49:14;5.88;;;2.05;;
34924;SDS011;21130;51.728;8.748;2023-01-01T03:51:54;3.28;;;2.00;;
34924;SDS011;21130;51.728;8.748;2023-01-01T03:54:27;5.38;;;2.33;;
34924;SDS011;21130;51.728;8.748;2023-01-01T03:57:02;5.20;;;2.50;;
34924;SDS011;21130;51.728;8.748;2023-01-01T03:59:38;8.25;;;2.25;;
34924;SDS011;21130;51.728;8.748;2023-01-01T04:02:10;5.07;;;2.20;;
34924;SDS011;21130;51.728;8.748;2023-01-01T04:04:41;6.55;;;2.28;;
34924;SDS011;21130;51.728;8.748;2023-01-01T04:07:09;5.75;;;2.17;;
34924;SDS011;21130;51.728;8.748;2023-01-01T04:09:36;5.25;;;1.83;;
34924;SDS011;21130;51.728;8.748;2023-01-01T04:12:05;5.43;;;2.22;;
34924;SDS011;21130;51.728;8.748;2023-01-01T04:14:33;8.77;;;1.92;;
34924;SDS011;21130;51.728;8.748;2023-01-01T04:17:01;7.47;;;2.20;;
34924;SDS011;21130;51.728;8.748;2023-01-01T04:19:30;5.85;;;2.20;;
34924;SDS011;21130;51.728;8.748;2023-01-01T04:21:58;5.32;;;1.70;;
34924;SDS011;21130;51.728;8.748;2023-01-01T04:24:24;5.97;;;2.00;;
34924;SDS011;21130;51.728;8.748;2023-01-01T04:26:51;4.78;;;2.13;;
34924;SDS011;21130;51.728;8.748;2023-01-01T04:29:18;4.50;;;2.00;;
34924;SDS011;21130;51.728;8.748;2023-01-01T04:31:45;5.88;;;2.28;;
34924;SDS011;21130;51.728;8.748;2023-01-01T04:34:12;4.55;;;1.55;;
34924;SDS011;21130;51.728;8.748;2023-01-01T04:36:39;7.05;;;1.90;;
34924;SDS011;21130;51.728;8.748;2023-01-01T04:39:06;6.90;;;2.47;;
34924;SDS011;21130;51.728;8.748;2023-01-01T04:41:33;4.18;;;1.70;;
34924;SDS011;21130;51.728;8.748;2023-01-01T04:44:00;4.15;;;1.65;;
34924;SDS011;21130;51.728;8.748;2023-01-01T04:46:27;3.75;;;1.70;;
34924;SDS011;21130;51.728;8.748;2023-01-01T04:48:53;5.20;;;2.08;;
34924;SDS011;21130;51.728;8.748;2023-01-01T04:51:20;2.55;;;1.85;;
34924;SDS011;21130;51.728;8.748;2023-01-01T04:53:48;3.80;;;1.88;;
34924;SDS011;21130;51.728;8.748;2023-01-01T04:56:15;6.32;;;1.90;;
34924;SDS011;21130;51.728;8.748;2023-01-01T04:58:43;3.85;;;1.85;;
34924;SDS011;21130;51.728;8.748;2023-01-01T05:01:13;4.90;;;2.10;;
34924;SDS011;21130;51.728;8.748;2023-01-01T05:03:40;2.92;;;1.70;;
34924;SDS011;21130;51.728;8.748;2023-01-01T05:06:07;5.00;;;1.80;;
34924;SDS011;21130;51.728;8.748;2023-01-01T05:08:35;3.63;;;1.60;;
34924;SDS011;21130;51.728;8.748;2023-01-01T05:11:05;3.85;;;1.80;;
34924;SDS011;21130;51.728;8.748;2023-01-01T05:13:34;4.32;;;1.63;;
34924;SDS011;21130;51.728;8.748;2023-01-01T05:16:01;4.40;;;1.77;;
34924;SDS011;21130;51.728;8.748;2023-01-01T05:18:28;6.63;;;1.98;;
34924;SDS011;21130;51.728;8.748;2023-01-01T05:20:57;3.05;;;1.63;;
34924;SDS011;21130;51.728;8.748;2023-01-01T05:23:24;4.30;;;1.80;;
34924;SDS011;21130;51.728;8.748;2023-01-01T05:25:51;6.28;;;1.65;;
34924;SDS011;21130;51.728;8.748;2023-01-01T05:28:18;4.20;;;1.80;;
34924;SDS011;21130;51.728;8.748;2023-01-01T05:30:45;5.18;;;1.70;;
34924;SDS011;21130;51.728;8.748;2023-01-01T05:33:11;3.88;;;1.77;;
34924;SDS011;21130;51.728;8.748;2023-01-01T05:35:38;4.38;;;1.73;;
34924;SDS011;21130;51.728;8.748;2023-01-01T05:38:04;5.28;;;2.42;;
34924;SDS011;21130;51.728;8.748;2023-01-01T05:40:31;3.20;;;1.63;;
34924;SDS011;21130;51.728;8.748;2023-01-01T05:42:57;4.13;;;1.70;;
34924;SDS011;21130;51.728;8.748;2023-01-01T05:45:25;5.07;;;1.70;;
34924;SDS011;21130;51.728;8.748;2023-01-01T05:47:52;4.70;;;1.70;;
34924;SDS011;21130;51.728;8.748;2023-01-01T05:50:18;3.72;;;1.75;;
34924;SDS011;21130;51.728;8.748;2023-01-01T05:52:45;4.18;;;1.80;;
34924;SDS011;21130;51.728;8.748;2023-01-01T05:55:11;6.43;;;1.65;;
34924;SDS011;21130;51.728;8.748;2023-01-01T05:57:37;3.47;;;1.67;;
34924;SDS011;21130;51.728;8.748;2023-01-01T06:00:04;6.30;;;2.20;;
34924;SDS011;21130;51.728;8.748;2023-01-01T06:02:33;5.97;;;2.05;;
34924;SDS011;21130;51.728;8.748;2023-01-01T06:05:00;4.53;;;1.90;;
34924;SDS011;21130;51.728;8.748;2023-01-01T06:07:26;3.60;;;2.17;;
34924;SDS011;21130;51.728;8.748;2023-01-01T06:09:54;2.83;;;1.60;;
34924;SDS011;21130;51.728;8.748;2023-01-01T06:12:20;5.15;;;1.90;;
34924;SDS011;21130;51.728;8.748;2023-01-01T06:14:46;7.05;;;2.10;;
34924;SDS011;21130;51.728;8.748;2023-01-01T06:17:13;6.88;;;2.30;;
34924;SDS011;21130;51.728;8.748;2023-01-01T06:19:40;3.40;;;1.50;;
34924;SDS011;21130;51.728;8.748;2023-01-01T06:22:07;3.97;;;2.20;;
34924;SDS011;21130;51.728;8.748;2023-01-01T06:24:33;5.35;;;1.77;;
34924;SDS011;21130;51.728;8.748;2023-01-01T06:27:00;3.05;;;1.90;;
34924;SDS011;21130;51.728;8.748;2023-01-01T06:29:26;4.32;;;2.05;;
34924;SDS011;21130;51.728;8.748;2023-01-01T06:31:52;3.15;;;1.60;;
34924;SDS011;21130;51.728;8.748;2023-01-01T06:34:19;3.20;;;1.75;;
34924;SDS011;21130;51.728;8.748;2023-01-01T06:36:47;5.07;;;2.35;;
34924;SDS011;21130;51.728;8.748;2023-01-01T06:39:13;6.57;;;1.90;;
34924;SDS011;21130;51.728;8.748;2023-01-01T06:41:40;6.00;;;2.00;;
34924;SDS011;21130;51.728;8.748;2023-01-01T06:44:06;3.78;;;1.65;;
34924;SDS011;21130;51.728;8.748;2023-01-01T06:46:33;4.35;;;1.75;;
34924;SDS011;21130;51.728;8.748;2023-01-01T06:49:01;2.80;;;1.65;;
34924;SDS011;21130;51.728;8.748;2023-01-01T06:51:29;3.92;;;1.83;;
34924;SDS011;21130;51.728;8.748;2023-01-01T06:53:58;4.13;;;2.10;;
34924;SDS011;21130;51.728;8.748;2023-01-01T06:56:26;5.35;;;1.95;;
34924;SDS011;21130;51.728;8.748;2023-01-01T06:58:53;5.22;;;1.90;;
34924;SDS011;21130;51.728;8.748;2023-01-01T07:01:20;3.58;;;1.70;;
34924;SDS011;21130;51.728;8.748;2023-01-01T07:03:51;5.05;;;2.00;;
34924;SDS011;21130;51.728;8.748;2023-01-01T07:06:19;4.25;;;1.90;;
34924;SDS011;21130;51.728;8.748;2023-01-01T07:08:46;4.75;;;1.90;;
34924;SDS011;21130;51.728;8.748;2023-01-01T07:11:14;2.70;;;1.80;;
34924;SDS011;21130;51.728;8.748;2023-01-01T07:13:41;5.18;;;2.10;;
34924;SDS011;21130;51.728;8.748;2023-01-01T07:16:07;2.15;;;1.55;;
34924;SDS011;21130;51.728;8.748;2023-01-01T07:18:34;3.55;;;1.60;;
34924;SDS011;21130;51.728;8.748;2023-01-01T07:21:01;4.85;;;1.73;;
34924;SDS011;21130;51.728;8.748;2023-01-01T07:23:30;4.63;;;2.05;;
34924;SDS011;21130;51.728;8.748;2023-01-01T07:25:58;3.17;;;1.40;;
34924;SDS011;21130;51.728;8.748;2023-01-01T07:28:26;5.72;;;2.00;;
34924;SDS011;21130;51.728;8.748;2023-01-01T07:30:52;3.28;;;1.70;;
34924;SDS011;21130;51.728;8.748;2023-01-01T07:33:20;5.65;;;2.08;;
34924;SDS011;21130;51.728;8.748;2023-01-01T07:35:47;2.75;;;1.63;;
34924;SDS011;21130;51.728;8.748;2023-01-01T07:38:14;4.65;;;1.70;;
34924;SDS011;21130;51.728;8.748;2023-01-01T07:40:41;3.50;;;1.70;;
34924;SDS011;21130;51.728;8.748;2023-01-01T07:43:08;3.25;;;1.48;;
34924;SDS011;21130;51.728;8.748;2023-01-01T07:45:37;3.75;;;1.80;;
34924;SDS011;21130;51.728;8.748;2023-01-01T07:48:06;5.57;;;1.77;;
34924;SDS011;21130;51.728;8.748;2023-01-01T07:50:38;4.70;;;2.25;;
34924;SDS011;21130;51.728;8.748;2023-01-01T07:53:04;3.90;;;1.85;;
34924;SDS011;21130;51.728;8.748;2023-01-01T07:55:31;2.85;;;1.45;;
34924;SDS011;21130;51.728;8.748;2023-01-01T07:57:58;6.03;;;1.60;;
34924;SDS011;21130;51.728;8.748;2023-01-01T08:00:25;5.88;;;1.90;;
34924;SDS011;21130;51.728;8.748;2023-01-01T08:02:53;2.83;;;1.50;;
34924;SDS011;21130;51.728;8.748;2023-01-01T08:05:19;3.78;;;1.50;;
34924;SDS011;21130;51.728;8.748;2023-01-01T08:07:46;6.72;;;1.45;;
34924;SDS011;21130;51.728;8.748;2023-01-01T08:10:14;3.25;;;1.75;;
34924;SDS011;21130;51.728;8.748;2023-01-01T08:12:41;2.83;;;1.50;;
34924;SDS011;21130;51.728;8.748;2023-01-01T08:15:09;4.80;;;1.55;;
34924;SDS011;21130;51.728;8.748;2023-01-01T08:17:36;4.50;;;1.45;;
34924;SDS011;21130;51.728;8.748;2023-01-01T08:20:05;4.63;;;1.42;;
34924;SDS011;21130;51.728;8.748;2023-01-01T08:22:32;4.28;;;1.70;;
34924;SDS011;21130;51.728;8.748;2023-01-01T08:24:59;3.95;;;1.67;;
34924;SDS011;21130;51.728;8.748;2023-01-01T08:27:25;2.50;;;1.52;;
34924;SDS011;21130;51.728;8.748;2023-01-01T08:29:52;6.00;;;1.77;;
34924;SDS011;21130;51.728;8.748;2023-01-01T08:32:19;1.98;;;1.50;;
34924;SDS011;21130;51.728;8.748;2023-01-01T08:34:45;2.83;;;1.67;;
34924;SDS011;21130;51.728;8.748;2023-01-01T08:37:13;4.32;;;2.00;;
34924;SDS011;21130;51.728;8.748;2023-01-01T08:39:40;4.53;;;1.83;;
34924;SDS011;21130;51.728;8.748;2023-01-01T08:42:06;4.75;;;2.00;;
34924;SDS011;21130;51.728;8.748;2023-01-01T08:44:33;4.50;;;1.67;;
34924;SDS011;21130;51.728;8.748;2023-01-01T08:46:59;5.45;;;1.85;;
34924;SDS011;21130;51.728;8.748;2023-01-01T08:49:26;5.57;;;1.70;;
34924;SDS011;21130;51.728;8.748;2023-01-01T08:51:52;4.82;;;1.90;;
34924;SDS011;21130;51.728;8.748;2023-01-01T08:54:20;4.72;;;1.60;;
34924;SDS011;21130;51.728;8.748;2023-01-01T08:56:47;3.08;;;1.60;;
34924;SDS011;21130;51.728;8.748;2023-01-01T08:59:14;4.13;;;1.60;;
34924;SDS011;21130;51.728;8.748;2023-01-01T09:01:40;3.53;;;1.55;;
34924;SDS011;21130;51.728;8.748;2023-01-01T09:04:06;3.85;;;1.92;;
34924;SDS011;21130;51.728;8.748;2023-01-01T09:06:36;5.10;;;1.83;;
34924;SDS011;21130;51.728;8.748;2023-01-01T09:09:02;5.68;;;1.98;;
34924;SDS011;21130;51.728;8.748;2023-01-01T09:11:30;3.92;;;1.85;;
34924;SDS011;21130;51.728;8.748;2023-01-01T09:13:57;3.58;;;1.45;;
34924;SDS011;21130;51.728;8.748;2023-01-01T09:16:24;4.95;;;1.60;;
34924;SDS011;21130;51.728;8.748;2023-01-01T09:18:50;2.72;;;1.55;;
34924;SDS011;21130;51.728;8.748;2023-01-01T09:21:17;4.88;;;1.80;;
34924;SDS011;21130;51.728;8.748;2023-01-01T09:23:43;3.55;;;1.40;;
34924;SDS011;21130;51.728;8.748;2023-01-01T09:26:10;4.70;;;1.60;;
34924;SDS011;21130;51.728;8.748;2023-01-01T09:28:38;2.95;;;1.27;;
34924;SDS011;21130;51.728;8.748;2023-01-01T09:31:04;3.22;;;1.50;;
34924;SDS011;21130;51.728;8.748;2023-01-01T09:33:31;3.95;;;1.70;;
34924;SDS011;21130;51.728;8.748;2023-01-01T09:36:09;6.00;;;1.98;;
34924;SDS011;21130;51.728;8.748;2023-01-01T09:38:36;3.20;;;1.52;;
34924;SDS011;21130;51.728;8.748;2023-01-01T09:41:04;3.72;;;1.73;;
34924;SDS011;21130;51.728;8.748;2023-01-01T09:43:42;3.47;;;1.63;;
34924;SDS011;21130;51.728;8.748;2023-01-01T09:46:16;2.45;;;1.50;;
34924;SDS011;21130;51.728;8.748;2023-01-01T09:48:44;3.20;;;1.77;;
34924;SDS011;21130;51.728;8.748;2023-01-01T09:51:18;2.97;;;1.70;;
34924;SDS011;21130;51.728;8.748;2023-01-01T09:53:47;3.53;;;1.60;;
34924;SDS011;21130;51.728;8.748;2023-01-01T09:56:20;4.10;;;1.65;;
34924;SDS011;21130;51.728;8.748;2023-01-01T09:58:51;3.25;;;1.90;;
34924;SDS011;21130;51.728;8.748;2023-01-01T10:01:24;4.38;;;1.52;;
34924;SDS011;21130;51.728;8.748;2023-01-01T10:04:06;5.60;;;1.77;;
34924;SDS011;21130;51.728;8.748;2023-01-01T10:06:56;3.25;;;1.83;;
34924;SDS011;21130;51.728;8.748;2023-01-01T10:09:32;3.78;;;1.40;;
34924;SDS011;21130;51.728;8.748;2023-01-01T10:12:10;4.25;;;1.67;;
34924;SDS011;21130;51.728;8.748;2023-01-01T10:14:47;6.20;;;1.73;;
34924;SDS011;21130;51.728;8.748;2023-01-01T10:17:16;7.25;;;1.85;;
34924;SDS011;21130;51.728;8.748;2023-01-01T10:19:46;3.38;;;1.50;;
34924;SDS011;21130;51.728;8.748;2023-01-01T10:22:17;4.25;;;1.60;;
34924;SDS011;21130;51.728;8.748;2023-01-01T10:24:48;8.20;;;1.80;;
34924;SDS011;21130;51.728;8.748;2023-01-01T10:27:25;3.72;;;1.52;;
34924;SDS011;21130;51.728;8.748;2023-01-01T10:29:57;4.53;;;1.90;;
34924;SDS011;21130;51.728;8.748;2023-01-01T10:32:27;4.13;;;1.92;;
34924;SDS011;21130;51.728;8.748;2023-01-01T10:34:55;4.22;;;1.38;;
34924;SDS011;21130;51.728;8.748;2023-01-01T10:37:23;4.82;;;1.80;;
34924;SDS011;21130;51.728;8.748;2023-01-01T10:39:55;4.05;;;1.45;;
34924;SDS011;21130;51.728;8.748;2023-01-01T10:42:22;3.75;;;1.73;;
34924;SDS011;21130;51.728;8.748;2023-01-01T10:44:51;3.45;;;1.63;;
34924;SDS011;21130;51.728;8.748;2023-01-01T10:47:28;3.97;;;1.80;;
34924;SDS011;21130;51.728;8.748;2023-01-01T10:49:55;6.10;;;1.70;;
34924;SDS011;21130;51.728;8.748;2023-01-01T10:52:25;5.15;;;1.63;;
34924;SDS011;21130;51.728;8.748;2023-01-01T10:54:55;6.57;;;1.67;;
34924;SDS011;21130;51.728;8.748;2023-01-01T10:57:28;2.38;;;1.60;;
34924;SDS011;21130;51.728;8.748;2023-01-01T11:00:08;4.65;;;1.58;;
34924;SDS011;21130;51.728;8.748;2023-01-01T11:02:38;3.80;;;1.40;;
34924;SDS011;21130;51.728;8.748;2023-01-01T11:05:11;2.65;;;1.55;;
34924;SDS011;21130;51.728;8.748;2023-01-01T11:07:39;3.97;;;1.30;;
34924;SDS011;21130;51.728;8.748;2023-01-01T11:10:11;4.68;;;1.33;;
34924;SDS011;21130;51.728;8.748;2023-01-01T11:12:42;4.10;;;1.83;;
34924;SDS011;21130;51.728;8.748;2023-01-01T11:15:18;3.72;;;1.60;;
34924;SDS011;21130;51.728;8.748;2023-01-01T11:17:49;5.25;;;1.70;;
34924;SDS011;21130;51.728;8.748;2023-01-01T11:20:16;5.53;;;1.70;;
34924;SDS011;21130;51.728;8.748;2023-01-01T11:22:45;4.22;;;1.40;;
34924;SDS011;21130;51.728;8.748;2023-01-01T11:25:16;3.13;;;1.48;;
34924;SDS011;21130;51.728;8.748;2023-01-01T11:27:45;6.32;;;1.70;;
34924;SDS011;21130;51.728;8.748;2023-01-01T11:30:17;4.68;;;1.45;;
34924;SDS011;21130;51.728;8.748;2023-01-01T11:32:51;3.40;;;1.35;;
34924;SDS011;21130;51.728;8.748;2023-01-01T11:35:21;3.60;;;1.40;;
34924;SDS011;21130;51.728;8.748;2023-01-01T11:37:50;4.55;;;1.80;;
34924;SDS011;21130;51.728;8.748;2023-01-01T11:40:19;3.70;;;1.27;;
34924;SDS011;21130;51.728;8.748;2023-01-01T11:42:48;5.20;;;1.65;;
34924;SDS011;21130;51.728;8.748;2023-01-01T11:45:18;3.45;;;1.35;;
34924;SDS011;21130;51.728;8.748;2023-01-01T11:47:49;3.60;;;1.25;;
34924;SDS011;21130;51.728;8.748;2023-01-01T11:50:22;4.80;;;1.90;;
34924;SDS011;21130;51.728;8.748;2023-01-01T11:52:52;3.58;;;1.20;;
34924;SDS011;21130;51.728;8.748;2023-01-01T11:55:23;3.28;;;1.30;;
34924;SDS011;21130;51.728;8.748;2023-01-01T11:57:58;4.63;;;1.35;;
34924;SDS011;21130;51.728;8.748;2023-01-01T12:00:29;4.78;;;1.88;;
34924;SDS011;21130;51.728;8.748;2023-01-01T12:03:02;4.88;;;1.75;;
34924;SDS011;21130;51.728;8.748;2023-01-01T12:05:36;2.80;;;1.33;;
34924;SDS011;21130;51.728;8.748;2023-01-01T12:08:11;3.58;;;1.58;;
34924;SDS011;21130;51.728;8.748;2023-01-01T12:10:44;5.95;;;1.55;;
34924;SDS011;21130;51.728;8.748;2023-01-01T12:13:16;2.00;;;1.35;;
34924;SDS011;21130;51.728;8.748;2023-01-01T12:15:46;4.50;;;1.40;;
34924;SDS011;21130;51.728;8.748;2023-01-01T12:18:24;3.15;;;1.38;;
34924;SDS011;21130;51.728;8.748;2023-01-01T12:20:59;6.13;;;1.38;;
34924;SDS011;21130;51.728;8.748;2023-01-01T12:23:29;3.83;;;1.50;;
34924;SDS011;21130;51.728;8.748;2023-01-01T12:25:58;4.85;;;1.50;;
34924;SDS011;21130;51.728;8.748;2023-01-01T12:28:36;3.95;;;1.50;;
34924;SDS011;21130;51.728;8.748;2023-01-01T12:31:11;3.45;;;1.60;;
34924;SDS011;21130;51.728;8.748;2023-01-01T12:33:54;3.97;;;1.30;;
34924;SDS011;21130;51.728;8.748;2023-01-01T12:36:32;5.43;;;1.30;;
34924;SDS011;21130;51.728;8.748;2023-01-01T12:42:14;3.72;;;1.48;;
34924;SDS011;21130;51.728;8.748;2023-01-01T12:44:47;3.90;;;1.55;;
34924;SDS011;21130;51.728;8.748;2023-01-01T12:47:33;4.88;;;1.23;;
34924;SDS011;21130;51.728;8.748;2023-01-01T12:50:12;3.38;;;1.27;;
34924;SDS011;21130;51.728;8.748;2023-01-01T12:52:51;6.57;;;2.00;;
34924;SDS011;21130;51.728;8.748;2023-01-01T12:55:39;4.22;;;1.58;;
34924;SDS011;21130;51.728;8.748;2023-01-01T12:58:25;6.25;;;1.80;;
34924;SDS011;21130;51.728;8.748;2023-01-01T13:00:57;5.15;;;1.70;;
34924;SDS011;21130;51.728;8.748;2023-01-01T13:03:27;5.38;;;1.50;;
34924;SDS011;21130;51.728;8.748;2023-01-01T13:05:59;2.35;;;1.30;;
34924;SDS011;21130;51.728;8.748;2023-01-01T13:08:26;5.13;;;1.60;;
34924;SDS011;21130;51.728;8.748;2023-01-01T13:10:53;2.67;;;1.50;;
34924;SDS011;21130;51.728;8.748;2023-01-01T13:13:22;4.35;;;1.63;;
34924;SDS011;21130;51.728;8.748;2023-01-01T13:15:50;3.60;;;1.55;;
34924;SDS011;21130;51.728;8.748;2023-01-01T13:18:25;4.40;;;1.42;;
34924;SDS011;21130;51.728;8.748;2023-01-01T13:21:00;2.78;;;1.40;;
34924;SDS011;21130;51.728;8.748;2023-01-01T13:23:45;4.15;;;1.50;;
34924;SDS011;21130;51.728;8.748;2023-01-01T13:26:40;4.20;;;1.60;;
34924;SDS011;21130;51.728;8.748;2023-01-01T13:32:09;4.93;;;1.60;;
34924;SDS011;21130;51.728;8.748;2023-01-01T13:37:45;5.47;;;1.90;;
34924;SDS011;21130;51.728;8.748;2023-01-01T13:43:26;4.82;;;1.50;;
34924;SDS011;21130;51.728;8.748;2023-01-01T13:45:55;3.00;;;1.60;;
34924;SDS011;21130;51.728;8.748;2023-01-01T13:51:41;4.97;;;1.63;;
34924;SDS011;21130;51.728;8.748;2023-01-01T14:00:41;4.70;;;1.90;;
34924;SDS011;21130;51.728;8.748;2023-01-01T14:03:41;6.25;;;1.98;;
34924;SDS011;21130;51.728;8.748;2023-01-01T14:06:12;6.43;;;1.67;;
34924;SDS011;21130;51.728;8.748;2023-01-01T14:08:41;3.65;;;1.75;;
34924;SDS011;21130;51.728;8.748;2023-01-01T14:11:17;4.07;;;1.50;;
34924;SDS011;21130;51.728;8.748;2023-01-01T14:13:46;4.47;;;1.42;;
34924;SDS011;21130;51.728;8.748;2023-01-01T14:16:14;5.28;;;1.40;;
34924;SDS011;21130;51.728;8.748;2023-01-01T14:18:41;5.80;;;1.88;;
34924;SDS011;21130;51.728;8.748;2023-01-01T14:21:10;5.70;;;1.48;;
34924;SDS011;21130;51.728;8.748;2023-01-01T14:23:40;4.38;;;1.42;;
34924;SDS011;21130;51.728;8.748;2023-01-01T14:26:10;3.97;;;1.50;;
34924;SDS011;21130;51.728;8.748;2023-01-01T14:28:39;5.93;;;2.00;;
34924;SDS011;21130;51.728;8.748;2023-01-01T14:31:08;7.90;;;1.90;;
34924;SDS011;21130;51.728;8.748;2023-01-01T14:33:38;5.05;;;1.83;;
34924;SDS011;21130;51.728;8.748;2023-01-01T14:36:05;5.00;;;1.50;;
34924;SDS011;21130;51.728;8.748;2023-01-01T14:38:42;3.95;;;1.70;;
34924;SDS011;21130;51.728;8.748;2023-01-01T14:41:10;5.68;;;1.50;;
34924;SDS011;21130;51.728;8.748;2023-01-01T14:43:41;5.22;;;1.48;;
34924;SDS011;21130;51.728;8.748;2023-01-01T14:46:12;4.35;;;1.75;;
34924;SDS011;21130;51.728;8.748;2023-01-01T14:48:42;5.43;;;1.60;;
34924;SDS011;21130;51.728;8.748;2023-01-01T14:51:10;4.13;;;1.50;;
34924;SDS011;21130;51.728;8.748;2023-01-01T14:53:40;4.43;;;1.60;;
34924;SDS011;21130;51.728;8.748;2023-01-01T14:56:08;3.97;;;1.23;;
34924;SDS011;21130;51.728;8.748;2023-01-01T14:58:34;6.47;;;1.48;;
34924;SDS011;21130;51.728;8.748;2023-01-01T15:01:13;5.70;;;1.55;;
34924;SDS011;21130;51.728;8.748;2023-01-01T15:03:54;7.53;;;1.95;;
34924;SDS011;21130;51.728;8.748;2023-01-01T15:06:25;3.22;;;1.65;;
34924;SDS011;21130;51.728;8.748;2023-01-01T15:08:52;3.53;;;1.30;;
34924;SDS011;21130;51.728;8.748;2023-01-01T15:11:19;4.50;;;1.60;;
34924;SDS011;21130;51.728;8.748;2023-01-01T15:13:53;3.95;;;1.77;;
34924;SDS011;21130;51.728;8.748;2023-01-01T15:16:22;6.68;;;1.70;;
34924;SDS011;21130;51.728;8.748;2023-01-01T15:18:49;6.18;;;1.88;;
34924;SDS011;21130;51.728;8.748;2023-01-01T15:21:19;6.18;;;1.85;;
34924;SDS011;21130;51.728;8.748;2023-01-01T15:23:59;5.30;;;1.80;;
34924;SDS011;21130;51.728;8.748;2023-01-01T15:26:28;2.35;;;1.30;;